Time;durP1;ratioP1;P1;durP2;ratioP2;P2;SDS_P1;SDS_P2;PMS_P1;PMS_P2;Temp;Humidity;BMP_temperature;BMP_pressure;BME280_temperature;BME280_humidity;BME280_pressure;Samples;Min_cycle;Max_cycle;Signal;HPM_P1;HPM_P2
2024/03/18 00:02:33;;;;;;;6.65;5.18;;;5.40;99.90;;;;;;4994957;28;20219;-78
2024/03/18 00:07:50;;;;;;;5.47;4.22;;;5.40;99.90;;;;;;4995610;28;20313;-79
2024/03/18 00:10:29;;;;;;;5.07;4.40;;;5.30;99.90;;;;;;4994692;28;20231;-78
2024/03/18 00:12:57;;;;;;;5.38;4.10;;;5.30;99.90;;;;;;4997683;28;20230;-78
2024/03/18 00:15:27;;;;;;;5.85;3.65;;;5.30;99.90;;;;;;4999979;28;20222;-77
2024/03/18 00:17:57;;;;;;;6.55;4.43;;;5.30;99.90;;;;;;5001035;28;20687;-76
2024/03/18 00:20:28;;;;;;;4.78;4.20;;;5.30;99.90;;;;;;4979575;28;20306;-76
2024/03/18 00:23:08;;;;;;;4.60;3.63;;;5.30;99.90;;;;;;5008153;28;20507;-78
2024/03/18 00:25:37;;;;;;;6.18;5.00;;;5.30;99.90;;;;;;4993357;28;20520;-78
2024/03/18 00:28:31;;;;;;;5.20;4.35;;;5.40;99.90;;;;;;4993637;28;20355;-77
2024/03/18 00:31:12;;;;;;;6.70;5.07;;;5.40;99.90;;;;;;4989122;28;20234;-78
2024/03/18 00:33:40;;;;;;;7.30;5.03;;;5.30;99.90;;;;;;4993926;28;20241;-78
2024/03/18 00:36:12;;;;;;;5.15;4.65;;;5.40;99.90;;;;;;4993519;28;20238;-78
2024/03/18 00:38:41;;;;;;;7.03;4.95;;;5.30;99.90;;;;;;4987576;28;20221;-77
2024/03/18 00:44:11;;;;;;;6.10;4.05;;;5.20;99.90;;;;;;4992536;28;20245;-77
2024/03/18 00:46:38;;;;;;;8.70;4.50;;;5.20;99.90;;;;;;4982181;28;21621;-78
2024/03/18 00:49:08;;;;;;;7.10;4.65;;;5.20;99.90;;;;;;4993712;28;20230;-78
2024/03/18 00:51:36;;;;;;;6.75;4.00;;;5.10;99.90;;;;;;4993138;28;20766;-77
2024/03/18 00:54:11;;;;;;;5.65;4.40;;;5.20;99.90;;;;;;5000292;28;20237;-77
2024/03/18 00:56:46;;;;;;;7.35;4.95;;;5.20;99.90;;;;;;4994738;28;20230;-78
2024/03/18 00:59:14;;;;;;;6.22;4.70;;;5.20;99.90;;;;;;4993345;28;20242;-77
2024/03/18 01:01:51;;;;;;;5.93;5.25;;;5.30;99.90;;;;;;4996873;28;20230;-78
2024/03/18 01:07:27;;;;;;;3.90;3.40;;;5.30;99.90;;;;;;5003240;28;20258;-77
2024/03/18 01:10:06;;;;;;;4.45;3.92;;;5.30;99.90;;;;;;4993579;28;20223;-77
2024/03/18 01:12:44;;;;;;;4.13;3.63;;;5.30;99.90;;;;;;4975692;28;20226;-77
2024/03/18 01:15:11;;;;;;;7.35;3.72;;;5.30;99.90;;;;;;4994099;28;20313;-77
2024/03/18 01:17:38;;;;;;;4.57;3.75;;;5.30;99.90;;;;;;4991026;28;20968;-77
2024/03/18 01:20:14;;;;;;;6.13;3.60;;;5.30;99.90;;;;;;4994282;28;20384;-78
2024/03/18 01:22:50;;;;;;;3.55;3.10;;;5.20;99.90;;;;;;4989374;28;20229;-78
2024/03/18 01:25:21;;;;;;;5.43;4.75;;;5.20;99.90;;;;;;5008276;28;20222;-78
2024/03/18 01:27:50;;;;;;;5.13;3.50;;;5.10;99.90;;;;;;4997491;28;20651;-78
2024/03/18 01:30:41;;;;;;;4.50;3.83;;;5.00;99.90;;;;;;5001189;28;20237;-77
2024/03/18 01:33:17;;;;;;;6.72;3.90;;;5.00;99.90;;;;;;4997516;28;20712;-78
2024/03/18 01:35:44;;;;;;;4.70;4.03;;;5.00;99.90;;;;;;4996471;28;20298;-79
2024/03/18 01:38:14;;;;;;;3.28;2.55;;;5.00;99.90;;;;;;4997120;28;20306;-79
2024/03/18 01:40:43;;;;;;;4.95;4.03;;;5.00;99.90;;;;;;4997350;28;20226;-79
2024/03/18 01:43:11;;;;;;;5.38;3.70;;;5.00;99.90;;;;;;4996325;28;22094;-78
2024/03/18 01:45:40;;;;;;;4.97;3.80;;;5.00;99.90;;;;;;4993422;28;20291;-78
2024/03/18 01:48:20;;;;;;;5.32;3.45;;;5.00;99.90;;;;;;4997697;28;20222;-79
2024/03/18 01:50:49;;;;;;;5.53;3.63;;;5.00;99.90;;;;;;4997068;28;20234;-78
2024/03/18 01:53:17;;;;;;;4.40;4.00;;;5.00;99.90;;;;;;4995430;28;20273;-79
2024/03/18 01:55:44;;;;;;;4.07;3.25;;;5.00;99.90;;;;;;4996932;28;20680;-78
2024/03/18 01:58:12;;;;;;;5.13;3.63;;;5.00;99.90;;;;;;5002023;28;20230;-78
2024/03/18 02:00:50;;;;;;;3.67;3.13;;;5.00;99.90;;;;;;4996515;28;20226;-78
2024/03/18 02:03:23;;;;;;;5.45;4.10;;;5.00;99.90;;;;;;4995945;28;20249;-79
2024/03/18 02:05:52;;;;;;;3.42;3.08;;;5.00;99.90;;;;;;4996868;28;20563;-79
2024/03/18 02:08:22;;;;;;;5.22;4.13;;;5.10;99.90;;;;;;4995736;28;20667;-78
2024/03/18 02:10:50;;;;;;;5.10;4.07;;;5.10;99.90;;;;;;4996000;28;20227;-79
2024/03/18 02:13:21;;;;;;;4.47;3.97;;;5.10;99.90;;;;;;4996455;28;20752;-78
2024/03/18 02:15:53;;;;;;;7.20;5.10;;;5.10;99.90;;;;;;4996581;28;20324;-78
2024/03/18 02:18:22;;;;;;;4.25;3.42;;;5.10;99.90;;;;;;4995796;28;20642;-79
2024/03/18 02:20:56;;;;;;;6.25;3.90;;;5.10;99.90;;;;;;4988347;28;20227;-77
2024/03/18 02:23:28;;;;;;;9.52;4.55;;;5.10;99.90;;;;;;4995389;28;20260;-78
2024/03/18 02:25:55;;;;;;;4.57;2.97;;;5.10;99.90;;;;;;4996721;28;20237;-79
2024/03/18 02:28:22;;;;;;;5.78;3.72;;;5.10;99.90;;;;;;4995447;28;20238;-77
2024/03/18 02:30:52;;;;;;;5.15;3.20;;;5.10;99.90;;;;;;4996046;28;20254;-79
2024/03/18 02:33:22;;;;;;;4.00;3.47;;;5.10;99.90;;;;;;4995821;28;20318;-79
2024/03/18 02:35:54;;;;;;;5.00;4.03;;;5.00;99.90;;;;;;4994612;28;20623;-79
2024/03/18 02:38:21;;;;;;;4.90;3.38;;;5.00;99.90;;;;;;4995611;28;20223;-78
2024/03/18 02:40:52;;;;;;;4.68;3.60;;;5.00;99.90;;;;;;4996312;28;20289;-79
2024/03/18 02:43:34;;;;;;;4.70;4.13;;;5.00;99.90;;;;;;4993285;28;20237;-79
2024/03/18 02:46:04;;;;;;;4.78;4.38;;;5.00;99.90;;;;;;5001206;28;20234;-79
2024/03/18 02:48:31;;;;;;;3.85;3.40;;;5.00;99.90;;;;;;4988129;28;20226;-79
2024/03/18 02:51:08;;;;;;;3.78;3.38;;;4.90;99.90;;;;;;5012615;28;20234;-78
2024/03/18 02:56:23;;;;;;;5.75;3.00;;;4.90;99.90;;;;;;5007494;28;20245;-78
2024/03/18 02:58:54;;;;;;;4.10;2.97;;;4.80;99.90;;;;;;5001018;28;20250;-78
2024/03/18 03:01:22;;;;;;;4.68;3.72;;;4.70;99.90;;;;;;4998882;28;20673;-78
2024/03/18 03:03:52;;;;;;;3.85;3.45;;;4.60;99.90;;;;;;4989066;28;20226;-78
2024/03/18 03:06:19;;;;;;;6.20;3.20;;;4.60;99.90;;;;;;5006809;28;20222;-78
2024/03/18 03:08:45;;;;;;;4.15;3.85;;;4.50;99.90;;;;;;4995360;28;20230;-77
2024/03/18 03:11:13;;;;;;;6.38;3.60;;;4.50;99.90;;;;;;4995580;28;20707;-78
2024/03/18 03:13:44;;;;;;;4.75;3.33;;;4.40;99.90;;;;;;4994954;28;20316;-78
2024/03/18 03:16:25;;;;;;;4.18;3.03;;;4.40;99.90;;;;;;5000790;28;20218;-78
2024/03/18 03:18:55;;;;;;;4.95;3.67;;;4.40;99.90;;;;;;4993854;28;20222;-78
2024/03/18 03:21:34;;;;;;;4.95;2.90;;;4.30;99.90;;;;;;4995326;28;20273;-79
2024/03/18 03:24:01;;;;;;;3.15;2.85;;;4.30;99.90;;;;;;4994534;28;20233;-79
2024/03/18 03:26:31;;;;;;;2.78;2.35;;;4.20;99.90;;;;;;4999716;28;20578;-78
2024/03/18 03:29:01;;;;;;;3.35;3.05;;;4.20;99.90;;;;;;4987579;28;20322;-79
2024/03/18 03:31:29;;;;;;;3.75;3.35;;;4.20;99.90;;;;;;5007184;28;20227;-79
2024/03/18 03:34:02;;;;;;;5.07;2.65;;;4.30;99.90;;;;;;4994152;28;20616;-79
2024/03/18 03:36:40;;;;;;;;;;;;;;;;;;;;;
2024/03/18 03:39:08;;;;;;;4.22;3.17;;;4.40;99.90;;;;;;4994376;28;20679;-78
2024/03/18 03:41:35;;;;;;;2.90;2.60;;;4.40;99.90;;;;;;4998897;28;20576;-79
2024/03/18 03:44:04;;;;;;;4.20;3.80;;;4.40;99.90;;;;;;4994750;28;20230;-79
2024/03/18 03:46:33;;;;;;;2.85;2.65;;;4.40;99.90;;;;;;4994377;28;20226;-78
2024/03/18 03:49:03;;;;;;;3.05;2.75;;;4.40;99.90;;;;;;4993976;28;20231;-79
2024/03/18 03:51:30;;;;;;;3.90;2.70;;;4.40;99.90;;;;;;4994510;28;20231;-77
2024/03/18 03:53:58;;;;;;;4.78;3.10;;;4.30;99.90;;;;;;4993626;28;20238;-78
2024/03/18 03:56:25;;;;;;;3.15;2.53;;;4.30;99.90;;;;;;4994625;28;20225;-78
2024/03/18 03:58:56;;;;;;;3.78;3.03;;;4.40;99.90;;;;;;4993996;28;20226;-79
2024/03/18 04:01:24;;;;;;;2.63;2.40;;;4.30;99.90;;;;;;4995742;28;20222;-79
2024/03/18 04:04:04;;;;;;;4.15;3.33;;;4.30;99.90;;;;;;4997546;28;20271;-79
2024/03/18 04:06:40;;;;;;;2.80;2.40;;;4.30;99.90;;;;;;4995154;28;20364;-77
2024/03/18 04:09:15;;;;;;;3.40;2.72;;;4.30;99.90;;;;;;4986880;28;20229;-78
2024/03/18 04:11:43;;;;;;;3.80;3.42;;;4.20;99.90;;;;;;5005755;28;20256;-78
2024/03/18 04:14:10;;;;;;;2.60;2.40;;;4.20;99.90;;;;;;4993993;28;20227;-78
2024/03/18 04:16:38;;;;;;;3.42;2.65;;;4.20;99.90;;;;;;4990462;28;20257;-78
2024/03/18 04:19:05;;;;;;;3.13;2.40;;;4.10;99.90;;;;;;5002562;28;20237;-78
2024/03/18 04:21:43;;;;;;;2.60;2.40;;;4.10;99.90;;;;;;4994358;28;20233;-78
2024/03/18 04:24:10;;;;;;;3.90;2.50;;;4.10;99.90;;;;;;4993514;28;20339;-79
2024/03/18 04:26:41;;;;;;;2.92;2.58;;;4.10;99.90;;;;;;4993831;28;20229;-78
2024/03/18 04:29:22;;;;;;;2.30;2.05;;;4.00;99.90;;;;;;4999576;28;20644;-79
2024/03/18 04:31:52;;;;;;;3.30;2.97;;;4.00;99.90;;;;;;4994047;28;20677;-78
2024/03/18 04:34:32;;;;;;;;;;;;;;;;;;;;;
2024/03/18 04:37:00;;;;;;;3.40;3.10;;;4.00;99.90;;;;;;4992456;28;20225;-79
2024/03/18 04:39:29;;;;;;;4.53;4.13;;;4.00;99.90;;;;;;4976836;28;20234;-79
2024/03/18 04:41:56;;;;;;;2.80;2.60;;;4.00;99.90;;;;;;4993926;28;20266;-78
2024/03/18 04:44:23;;;;;;;4.00;3.60;;;4.00;99.90;;;;;;4993866;28;20277;-78
2024/03/18 04:46:51;;;;;;;3.17;2.97;;;4.00;99.90;;;;;;4979260;28;20227;-77
2024/03/18 04:49:18;;;;;;;4.05;2.88;;;4.00;99.90;;;;;;4993938;28;20229;-78
2024/03/18 04:51:53;;;;;;;2.83;2.63;;;4.00;99.90;;;;;;4992796;28;20727;-78
2024/03/18 04:54:20;;;;;;;2.97;2.78;;;4.00;99.90;;;;;;4993295;28;20314;-78
2024/03/18 04:56:48;;;;;;;2.95;2.65;;;3.90;99.90;;;;;;4998904;28;20232;-78
2024/03/18 04:59:18;;;;;;;3.45;3.10;;;3.90;99.90;;;;;;4993546;28;20238;-79
2024/03/18 05:01:54;;;;;;;2.95;2.67;;;3.90;99.90;;;;;;4993606;28;20561;-79
2024/03/18 05:04:23;;;;;;;5.65;3.63;;;3.90;99.90;;;;;;4984199;28;20226;-78
2024/03/18 05:06:50;;;;;;;4.22;3.92;;;3.90;99.90;;;;;;4993485;28;20230;-78
2024/03/18 05:09:20;;;;;;;4.40;4.10;;;3.90;99.90;;;;;;4993641;28;20226;-78
2024/03/18 05:11:49;;;;;;;4.22;3.60;;;3.90;99.90;;;;;;4998469;28;20236;-78
2024/03/18 05:14:15;;;;;;;3.97;3.63;;;3.90;99.90;;;;;;4993383;28;20235;-79
2024/03/18 05:16:42;;;;;;;3.97;3.60;;;3.90;99.90;;;;;;4989318;28;20225;-79
2024/03/18 05:19:09;;;;;;;3.90;3.58;;;3.90;99.90;;;;;;5001354;28;20222;-78
2024/03/18 05:21:43;;;;;;;3.35;3.05;;;3.90;99.90;;;;;;4992264;28;20305;-78
2024/03/18 05:24:10;;;;;;;3.00;2.60;;;3.90;99.90;;;;;;4993925;28;20234;-79
2024/03/18 05:26:37;;;;;;;2.80;2.28;;;3.90;99.90;;;;;;4994798;28;20226;-79
2024/03/18 05:29:15;;;;;;;4.00;2.38;;;3.90;99.90;;;;;;5005426;28;20295;-80
2024/03/18 05:31:42;;;;;;;4.05;2.80;;;3.90;99.90;;;;;;5008173;28;20236;-78
2024/03/18 05:34:09;;;;;;;2.58;2.20;;;3.90;99.90;;;;;;4990748;28;20303;-79
2024/03/18 05:36:37;;;;;;;3.60;2.58;;;3.90;99.90;;;;;;4997420;28;20574;-79
2024/03/18 05:39:13;;;;;;;2.78;2.20;;;3.90;99.90;;;;;;4995878;28;20245;-77
2024/03/18 05:41:49;;;;;;;3.50;3.20;;;3.90;99.90;;;;;;4992079;28;20237;-77
2024/03/18 05:44:16;;;;;;;2.65;2.20;;;3.90;99.90;;;;;;4984595;28;20226;-78
2024/03/18 05:46:44;;;;;;;2.90;2.35;;;3.90;99.90;;;;;;4993246;28;20553;-79
2024/03/18 05:49:11;;;;;;;2.40;2.20;;;3.90;99.90;;;;;;4993527;28;20306;-79
2024/03/18 05:51:43;;;;;;;2.72;2.50;;;3.90;99.90;;;;;;4983726;28;20249;-78
2024/03/18 05:54:16;;;;;;;3.00;2.70;;;4.00;99.90;;;;;;4993416;28;20285;-78
2024/03/18 05:56:43;;;;;;;2.72;2.47;;;3.90;99.90;;;;;;4992867;28;20254;-78
2024/03/18 05:59:14;;;;;;;3.00;2.80;;;4.00;99.90;;;;;;4996687;28;20226;-78
2024/03/18 06:01:42;;;;;;;3.30;2.40;;;4.00;99.90;;;;;;4993400;28;20308;-79
2024/03/18 06:04:11;;;;;;;2.90;2.70;;;4.00;99.90;;;;;;4993935;28;20768;-78
2024/03/18 06:06:40;;;;;;;4.05;3.30;;;4.00;99.90;;;;;;4983015;28;20222;-79
2024/03/18 06:09:10;;;;;;;3.78;3.15;;;4.10;99.90;;;;;;4995428;28;20289;-79
2024/03/18 06:14:36;;;;;;;4.88;3.20;;;4.10;99.90;;;;;;4984652;28;20234;-79
2024/03/18 06:17:24;;;;;;;4.28;3.40;;;4.20;99.90;;;;;;5003247;28;20598;-78
2024/03/18 06:19:58;;;;;;;4.90;3.15;;;4.20;99.90;;;;;;4987781;28;20254;-78
2024/03/18 06:22:37;;;;;;;3.25;3.00;;;4.30;99.90;;;;;;4996327;28;20226;-78
2024/03/18 06:27:52;;;;;;;3.47;3.00;;;4.40;99.90;;;;;;4998331;28;20241;-78
2024/03/18 06:30:40;;;;;;;4.95;3.40;;;4.40;99.90;;;;;;4987687;28;20251;-79
2024/03/18 06:33:09;;;;;;;5.75;3.03;;;4.50;99.90;;;;;;5005168;28;20317;-79
2024/03/18 06:35:36;;;;;;;5.55;2.90;;;4.50;99.90;;;;;;4994779;28;20233;-78
2024/03/18 06:38:05;;;;;;;3.97;3.00;;;4.50;99.90;;;;;;4995430;28;20689;-78
2024/03/18 06:40:31;;;;;;;4.90;3.20;;;4.60;99.90;;;;;;4995885;28;20309;-78
2024/03/18 06:43:22;;;;;;;5.05;2.50;;;4.60;99.90;;;;;;4996338;28;20226;-78
2024/03/18 06:45:49;;;;;;;9.93;2.60;;;4.60;99.90;;;;;;4995970;28;20219;-78
2024/03/18 06:48:16;;;;;;;3.40;3.10;;;4.70;99.90;;;;;;4987902;28;20684;-79
2024/03/18 06:50:43;;;;;;;3.28;2.97;;;4.70;99.90;;;;;;4996099;28;20237;-79
2024/03/18 06:53:15;;;;;;;4.40;3.15;;;4.70;99.90;;;;;;4995584;28;20227;-79
2024/03/18 06:55:44;;;;;;;6.13;3.50;;;4.60;99.90;;;;;;4995797;28;20230;-78
2024/03/18 06:58:14;;;;;;;4.75;2.85;;;4.60;99.90;;;;;;4995696;28;20223;-79
2024/03/18 07:00:41;;;;;;;3.20;2.70;;;4.50;99.90;;;;;;4995695;28;20231;-79
2024/03/18 07:03:08;;;;;;;3.67;3.25;;;4.60;99.90;;;;;;4995131;28;20223;-79
2024/03/18 07:05:48;;;;;;;2.90;2.60;;;4.60;99.90;;;;;;4997769;28;20301;-79
2024/03/18 07:08:25;;;;;;;3.50;2.30;;;4.60;99.90;;;;;;4993648;28;20223;-79
2024/03/18 07:10:54;;;;;;;3.88;3.28;;;4.60;99.90;;;;;;4995823;28;20565;-77
2024/03/18 07:13:21;;;;;;;3.30;3.03;;;4.70;99.90;;;;;;4993639;28;20218;-78
2024/03/18 07:15:54;;;;;;;2.10;1.90;;;4.80;99.90;;;;;;4994261;28;20246;-79
2024/03/18 07:19:07;;;;;;;2.75;2.40;;;4.70;99.90;;;;;;4997245;28;20218;-78
2024/03/18 07:21:38;;;;;;;2.30;2.05;;;4.70;99.90;;;;;;4994129;28;20230;-78
2024/03/18 07:24:12;;;;;;;2.47;2.28;;;4.80;99.90;;;;;;4990650;28;20292;-78
2024/03/18 07:27:04;;;;;;;4.13;2.60;;;4.80;99.90;;;;;;5005039;28;20229;-78
2024/03/18 07:29:34;;;;;;;4.70;2.40;;;4.80;99.90;;;;;;4994914;28;20669;-78
2024/03/18 07:32:42;;;;;;;2.05;1.88;;;4.80;99.60;;;;;;4995452;28;20309;-78
2024/03/18 07:35:12;;;;;;;2.70;2.10;;;4.90;99.20;;;;;;4921626;28;20265;-78
2024/03/18 07:37:43;;;;;;;2.50;1.70;;;4.90;98.70;;;;;;4993235;28;20227;-78
2024/03/18 07:40:12;;;;;;;4.57;1.67;;;5.00;99.00;;;;;;4994511;28;20241;-78
2024/03/18 07:42:40;;;;;;;3.90;1.88;;;5.10;98.70;;;;;;4983298;28;20223;-77
2024/03/18 07:45:08;;;;;;;4.60;1.83;;;5.10;98.10;;;;;;4996121;28;20256;-77
2024/03/18 07:47:44;;;;;;;4.30;1.90;;;5.10;97.80;;;;;;4994902;28;20735;-78
2024/03/18 07:50:54;;;;;;;2.17;1.55;;;5.20;97.90;;;;;;4993134;28;20327;-78
2024/03/18 07:53:22;;;;;;;2.13;1.92;;;5.20;97.60;;;;;;4983282;28;20223;-78
2024/03/18 07:55:59;;;;;;;3.05;1.90;;;5.30;97.60;;;;;;4995269;28;20539;-79
2024/03/18 07:58:29;;;;;;;2.08;1.70;;;5.30;96.60;;;;;;4995764;28;20218;-78
2024/03/18 08:01:00;;;;;;;3.08;1.40;;;5.40;96.30;;;;;;4998128;28;20306;-78
2024/03/18 08:03:29;;;;;;;2.08;1.30;;;5.40;95.90;;;;;;4995705;28;20222;-78
2024/03/18 08:05:57;;;;;;;1.20;0.90;;;5.40;95.50;;;;;;5007295;28;20238;-78
2024/03/18 08:08:29;;;;;;;1.30;1.20;;;5.40;95.40;;;;;;5004505;28;20257;-78
2024/03/18 08:10:58;;;;;;;1.65;1.05;;;5.40;95.10;;;;;;5002827;28;20684;-78
2024/03/18 08:13:25;;;;;;;1.30;1.00;;;5.50;95.30;;;;;;4996263;28;20231;-78
2024/03/18 08:21:52;;;;;;;1.30;1.00;;;5.70;93.90;;;;;;4982263;28;20234;-78
2024/03/18 08:24:23;;;;;;;2.25;1.00;;;5.70;93.50;;;;;;4984039;28;20423;-78
2024/03/18 08:27:02;;;;;;;1.42;1.23;;;5.70;93.40;;;;;;4994555;28;20219;-78
2024/03/18 08:29:30;;;;;;;1.70;1.40;;;5.80;93.40;;;;;;4994735;28;20223;-77
2024/03/18 08:31:57;;;;;;;1.48;1.38;;;5.90;93.00;;;;;;4993691;28;20233;-77
2024/03/18 08:34:24;;;;;;;1.63;1.08;;;5.80;92.60;;;;;;4994243;28;20272;-78
2024/03/18 08:36:55;;;;;;;1.90;1.25;;;5.90;92.90;;;;;;4993107;28;20313;-77
2024/03/18 08:39:22;;;;;;;1.10;1.00;;;5.80;92.70;;;;;;4993786;28;20226;-77
2024/03/18 08:41:49;;;;;;;1.23;1.08;;;6.00;92.90;;;;;;4981824;28;20229;-77
2024/03/18 08:44:27;;;;;;;1.17;1.00;;;6.00;92.90;;;;;;4990875;28;20235;-77
2024/03/18 08:46:54;;;;;;;2.25;1.70;;;6.10;92.80;;;;;;4995547;28;20246;-77
2024/03/18 08:49:24;;;;;;;5.13;1.60;;;6.00;92.10;;;;;;4997727;28;20221;-77
2024/03/18 08:51:54;;;;;;;1.48;1.10;;;6.20;92.30;;;;;;4993702;28;20230;-77
2024/03/18 08:57:25;;;;;;;2.28;1.30;;;6.30;92.10;;;;;;4992943;28;20284;-78
2024/03/18 08:59:54;;;;;;;1.55;1.40;;;6.30;92.00;;;;;;4994158;28;20677;-78
2024/03/18 09:02:21;;;;;;;2.10;1.90;;;6.20;92.20;;;;;;4998444;28;20232;-78
2024/03/18 09:04:59;;;;;;;1.38;1.20;;;6.30;92.80;;;;;;4995435;28;20237;-77
2024/03/18 09:07:29;;;;;;;4.85;1.60;;;6.40;92.80;;;;;;4995428;28;20301;-77
2024/03/18 09:09:56;;;;;;;1.55;1.10;;;6.40;93.00;;;;;;4994000;28;20723;-78
2024/03/18 09:12:26;;;;;;;1.70;1.42;;;6.40;92.70;;;;;;4981005;28;20289;-78
2024/03/18 09:15:05;;;;;;;1.65;1.40;;;6.50;92.90;;;;;;4993813;28;20243;-78
2024/03/18 09:17:32;;;;;;;1.30;1.20;;;6.60;92.70;;;;;;4992928;28;20269;-78
2024/03/18 09:20:00;;;;;;;3.03;1.20;;;6.60;92.40;;;;;;4993301;28;20309;-79
2024/03/18 09:22:30;;;;;;;2.22;1.40;;;6.70;92.40;;;;;;4983903;28;20265;-78
2024/03/18 09:24:57;;;;;;;2.17;1.60;;;6.80;92.30;;;;;;4993895;28;20785;-78
2024/03/18 09:30:24;;;;;;;1.15;1.00;;;6.90;92.10;;;;;;4997727;28;20237;-77
2024/03/18 09:32:51;;;;;;;1.85;1.30;;;7.10;92.20;;;;;;4986275;28;20568;-77
2024/03/18 09:35:28;;;;;;;2.03;1.83;;;7.10;91.90;;;;;;5004558;28;20233;-77
2024/03/18 09:37:55;;;;;;;1.60;1.25;;;7.20;91.80;;;;;;4993565;28;20621;-77
2024/03/18 09:40:27;;;;;;;1.55;1.30;;;7.20;91.60;;;;;;4993330;28;20237;-77
2024/03/18 09:42:54;;;;;;;2.78;1.77;;;7.20;91.50;;;;;;5004941;28;22800;-77
2024/03/18 09:45:33;;;;;;;1.38;1.10;;;7.30;91.40;;;;;;4997501;28;20226;-78
2024/03/18 09:48:00;;;;;;;1.42;1.20;;;7.30;91.10;;;;;;4997742;28;20213;-78
2024/03/18 09:50:28;;;;;;;1.65;1.20;;;7.40;91.30;;;;;;5001651;28;20329;-78
2024/03/18 09:52:57;;;;;;;2.35;1.58;;;7.40;91.10;;;;;;4996360;28;20293;-78
2024/03/18 09:55:27;;;;;;;1.50;1.40;;;7.50;91.40;;;;;;4997290;28;20683;-77
2024/03/18 09:57:59;;;;;;;1.60;1.10;;;7.60;91.50;;;;;;4995923;28;20226;-78
2024/03/18 10:00:32;;;;;;;3.17;1.30;;;7.60;90.90;;;;;;4996572;28;20222;-78
2024/03/18 10:03:00;;;;;;;1.70;1.60;;;7.60;91.00;;;;;;4988351;28;20230;-77
2024/03/18 10:05:30;;;;;;;3.90;1.33;;;7.60;91.20;;;;;;4996031;28;20234;-77
2024/03/18 10:08:32;;;;;;;2.22;1.65;;;7.70;90.80;;;;;;4982387;28;20239;-78
2024/03/18 10:10:59;;;;;;;1.60;1.50;;;7.70;90.90;;;;;;4994902;28;20222;-77
2024/03/18 10:13:26;;;;;;;2.95;1.90;;;7.60;90.90;;;;;;4996266;28;20230;-77
2024/03/18 10:15:58;;;;;;;1.90;1.48;;;7.70;91.10;;;;;;4997171;28;20229;-77
2024/03/18 10:18:29;;;;;;;2.40;1.30;;;7.80;90.90;;;;;;4996563;28;20226;-79
2024/03/18 10:21:01;;;;;;;1.80;1.55;;;7.90;90.80;;;;;;4985394;28;20244;-79
2024/03/18 10:23:32;;;;;;;3.42;1.60;;;8.00;90.50;;;;;;4997088;28;20317;-79
2024/03/18 10:26:07;;;;;;;2.25;1.40;;;8.00;90.10;;;;;;4985270;28;20545;-79
2024/03/18 10:28:37;;;;;;;2.53;1.52;;;7.90;90.10;;;;;;5002263;28;20218;-77
2024/03/18 10:31:12;;;;;;;1.42;1.33;;;8.00;90.30;;;;;;4996638;28;20223;-78
2024/03/18 10:33:41;;;;;;;1.95;1.67;;;8.10;90.50;;;;;;4996502;28;20353;-78
2024/03/18 10:36:26;;;;;;;2.05;1.42;;;8.20;90.60;;;;;;4998170;28;20241;-78
2024/03/18 10:39:01;;;;;;;2.33;1.30;;;8.30;90.60;;;;;;5007726;28;20229;-79
2024/03/18 10:41:36;;;;;;;3.45;1.80;;;8.40;90.60;;;;;;5004562;28;20296;-78
2024/03/18 10:44:12;;;;;;;6.25;1.80;;;8.40;90.90;;;;;;4998075;28;20683;-78
2024/03/18 10:46:43;;;;;;;1.65;1.27;;;8.40;90.20;;;;;;4996675;28;20257;-77
2024/03/18 10:49:20;;;;;;;1.50;1.10;;;8.50;90.10;;;;;;4981642;28;20223;-78
2024/03/18 10:51:48;;;;;;;1.60;1.50;;;8.60;90.10;;;;;;4996057;28;20226;-77
2024/03/18 10:54:17;;;;;;;2.60;1.63;;;8.60;89.00;;;;;;4995853;28;20231;-77
2024/03/18 10:56:45;;;;;;;3.78;1.67;;;8.60;90.30;;;;;;4993970;28;20227;-78
2024/03/18 10:59:17;;;;;;;1.58;1.30;;;8.70;90.00;;;;;;4995908;28;20578;-77
2024/03/18 11:01:56;;;;;;;2.28;2.08;;;8.70;88.00;;;;;;4995450;28;20229;-77
2024/03/18 11:04:29;;;;;;;2.58;2.10;;;8.70;89.50;;;;;;4995654;28;20254;-77
2024/03/18 11:07:07;;;;;;;2.45;1.50;;;8.70;88.80;;;;;;4994617;28;20319;-77
2024/03/18 11:09:42;;;;;;;1.50;1.15;;;8.70;87.40;;;;;;4999990;28;20229;-78
2024/03/18 11:12:35;;;;;;;1.27;1.17;;;8.70;87.10;;;;;;4987862;28;20221;-78
2024/03/18 11:15:07;;;;;;;1.80;1.48;;;8.80;86.50;;;;;;5003589;28;20313;-77
2024/03/18 11:17:41;;;;;;;2.03;1.27;;;8.80;85.80;;;;;;4995364;28;20253;-79
2024/03/18 11:20:19;;;;;;;1.27;1.17;;;8.80;84.40;;;;;;4995270;28;20661;-79
2024/03/18 11:22:58;;;;;;;2.35;1.13;;;8.80;84.20;;;;;;4992987;28;20233;-77
2024/03/18 11:25:30;;;;;;;1.98;1.20;;;8.80;83.10;;;;;;5002186;28;20215;-77
2024/03/18 11:28:22;;;;;;;2.05;1.25;;;8.80;83.00;;;;;;4995083;28;20230;-78
2024/03/18 11:30:52;;;;;;;1.30;1.20;;;8.80;83.60;;;;;;4993063;28;20578;-78
2024/03/18 11:33:23;;;;;;;1.27;1.17;;;8.80;84.10;;;;;;5001248;28;20238;-78
2024/03/18 11:35:54;;;;;;;1.50;1.30;;;8.90;84.50;;;;;;4988377;28;20577;-78
2024/03/18 11:38:21;;;;;;;1.50;1.30;;;9.00;85.10;;;;;;4994240;28;20222;-77
2024/03/18 11:41:13;;;;;;;5.47;1.80;;;9.00;84.80;;;;;;4993563;28;20258;-78
2024/03/18 11:43:54;;;;;;;1.60;1.50;;;9.00;83.40;;;;;;4994672;28;20235;-78
2024/03/18 11:46:22;;;;;;;1.65;1.55;;;9.10;82.10;;;;;;4994697;28;20214;-77
2024/03/18 11:49:03;;;;;;;1.63;1.52;;;9.10;82.00;;;;;;4993148;28;20222;-78
2024/03/18 11:51:30;;;;;;;1.73;1.40;;;9.10;82.00;;;;;;4993364;28;20222;-78
2024/03/18 11:54:00;;;;;;;1.38;1.27;;;9.20;82.00;;;;;;4993725;28;20314;-77
2024/03/18 11:56:27;;;;;;;1.10;1.00;;;9.20;82.70;;;;;;4993532;28;20289;-78
2024/03/18 11:59:12;;;;;;;1.55;1.35;;;9.30;81.70;;;;;;4993617;28;20305;-77
2024/03/18 12:01:39;;;;;;;1.00;1.00;;;9.30;82.00;;;;;;4991562;28;20754;-78
2024/03/18 12:04:06;;;;;;;2.00;1.70;;;9.30;83.00;;;;;;5000146;28;20904;-78
2024/03/18 12:06:37;;;;;;;2.70;2.05;;;9.30;82.60;;;;;;4993391;28;20313;-78
2024/03/18 12:09:07;;;;;;;2.80;1.50;;;9.30;82.40;;;;;;4994035;28;20218;-78
2024/03/18 12:11:34;;;;;;;2.20;1.42;;;9.40;82.40;;;;;;4993751;28;20232;-78
2024/03/18 12:14:02;;;;;;;2.97;1.45;;;9.40;82.60;;;;;;4993112;28;20580;-78
2024/03/18 12:16:32;;;;;;;2.55;1.65;;;9.40;82.40;;;;;;5000768;28;20218;-78
2024/03/18 12:19:05;;;;;;;1.65;1.20;;;9.40;82.80;;;;;;4992166;28;20231;-77
2024/03/18 12:21:47;;;;;;;1.42;1.33;;;9.40;82.10;;;;;;4993905;28;20539;-77
2024/03/18 12:30:02;;;;;;;1.83;1.35;;;9.40;82.90;;;;;;4989272;28;20737;-78
2024/03/18 12:32:36;;;;;;;3.88;1.75;;;9.50;82.20;;;;;;4998007;28;20223;-78
2024/03/18 12:35:06;;;;;;;2.67;1.47;;;9.40;82.00;;;;;;4947470;28;1320867;-78
2024/03/18 12:37:55;;;;;;;2.17;1.30;;;9.40;82.60;;;;;;4994185;28;20218;-78
2024/03/18 12:40:23;;;;;;;1.90;1.30;;;9.40;81.40;;;;;;4994573;28;20637;-78
2024/03/18 12:42:52;;;;;;;3.88;1.40;;;9.40;81.80;;;;;;4993237;28;20292;-77
2024/03/18 12:45:23;;;;;;;1.75;1.52;;;9.30;81.90;;;;;;4994055;28;20222;-77
2024/03/18 12:47:52;;;;;;;1.50;1.40;;;9.40;82.40;;;;;;4993450;28;20226;-77
2024/03/18 12:50:22;;;;;;;4.68;1.90;;;9.30;81.70;;;;;;4993413;28;20222;-77
2024/03/18 12:52:49;;;;;;;2.13;1.60;;;9.20;81.50;;;;;;4992759;28;20237;-77
2024/03/18 12:55:16;;;;;;;3.50;2.50;;;9.20;81.70;;;;;;4996421;28;20552;-78
2024/03/18 12:57:43;;;;;;;2.90;1.50;;;9.20;81.70;;;;;;4995009;28;20230;-78
2024/03/18 13:00:12;;;;;;;2.00;1.77;;;9.20;81.10;;;;;;4993905;28;20353;-78
2024/03/18 13:02:46;;;;;;;1.98;1.40;;;9.30;81.70;;;;;;4995869;28;20229;-78
2024/03/18 13:05:13;;;;;;;1.13;1.00;;;9.30;81.90;;;;;;4993076;28;20222;-78
2024/03/18 13:07:42;;;;;;;3.28;1.63;;;9.40;82.20;;;;;;4993049;28;20233;-78
2024/03/18 13:10:16;;;;;;;5.90;1.77;;;9.40;81.20;;;;;;4993984;28;20288;-78
2024/03/18 13:12:43;;;;;;;2.50;1.50;;;9.40;80.90;;;;;;4993262;28;20223;-78
2024/03/18 13:15:13;;;;;;;1.65;1.40;;;9.40;81.20;;;;;;4996798;28;20304;-78
2024/03/18 13:18:05;;;;;;;2.40;1.42;;;9.40;81.10;;;;;;4997443;28;20276;-78
2024/03/18 13:20:42;;;;;;;2.15;1.20;;;9.40;80.60;;;;;;4997380;28;20222;-77
2024/03/18 13:23:13;;;;;;;4.60;1.38;;;9.50;80.90;;;;;;4997857;28;20317;-78
2024/03/18 13:25:47;;;;;;;1.25;1.15;;;9.50;81.10;;;;;;4997572;28;20322;-78
2024/03/18 13:28:15;;;;;;;5.00;2.00;;;9.50;80.40;;;;;;4997410;28;20242;-77
2024/03/18 13:30:42;;;;;;;1.98;1.70;;;9.50;80.30;;;;;;4997140;28;20231;-78
2024/03/18 13:33:22;;;;;;;1.80;1.50;;;9.50;80.20;;;;;;4991540;28;20280;-78
2024/03/18 13:36:15;;;;;;;1.90;1.00;;;9.50;80.10;;;;;;4994919;28;20326;-78
2024/03/18 13:38:43;;;;;;;1.98;1.17;;;9.60;80.30;;;;;;5008603;28;20227;-78
2024/03/18 13:41:13;;;;;;;3.00;1.20;;;9.60;80.40;;;;;;4996714;28;20241;-79
2024/03/18 13:43:42;;;;;;;2.28;1.30;;;9.70;80.10;;;;;;5001861;28;20249;-78
2024/03/18 13:46:17;;;;;;;1.38;1.02;;;9.80;80.20;;;;;;4986704;28;20317;-79
2024/03/18 13:48:45;;;;;;;4.93;1.42;;;9.80;79.00;;;;;;5003258;28;20229;-77
2024/03/18 13:51:16;;;;;;;1.38;1.27;;;9.70;78.90;;;;;;5007150;28;20310;-78
2024/03/18 13:53:43;;;;;;;2.15;1.20;;;9.70;78.50;;;;;;4997161;28;20637;-77
2024/03/18 13:56:15;;;;;;;2.83;1.63;;;9.70;78.80;;;;;;4994198;28;20230;-77
2024/03/18 13:58:51;;;;;;;1.70;1.50;;;9.70;78.40;;;;;;4995563;28;20226;-76
2024/03/18 14:01:43;;;;;;;1.33;1.00;;;9.80;78.70;;;;;;4997036;28;20632;-76